Time;durP1;ratioP1;P1;durP2;ratioP2;P2;SDS_P1;SDS_P2;PMS_P1;PMS_P2;Temp;Humidity;BMP_temperature;BMP_pressure;BME280_temperature;BME280_humidity;BME280_pressure;Samples;Min_cycle;Max_cycle;Signal;HPM_P1;HPM_P2
2024/01/06 00:01:32;;;;;;;16.70;14.30;;;3.00;99.90;;;;;;5112223;27;20826;-90
2024/01/06 00:03:57;;;;;;;18.47;15.50;;;3.20;99.90;;;;;;5113869;27;20439;-91
2024/01/06 00:06:24;;;;;;;19.73;16.23;;;3.10;99.90;;;;;;5112714;27;20766;-93
2024/01/06 00:08:53;;;;;;;18.77;15.73;;;3.00;99.90;;;;;;5129085;27;20401;-92
2024/01/06 00:11:20;;;;;;;20.02;16.63;;;2.80;99.90;;;;;;5133399;27;20420;-92
2024/01/06 00:13:46;;;;;;;19.55;16.30;;;3.00;99.90;;;;;;5149872;27;20443;-93
2024/01/06 00:16:12;;;;;;;20.30;17.03;;;3.00;99.90;;;;;;5150683;27;20450;-93
2024/01/06 00:18:39;;;;;;;20.13;16.20;;;3.10;99.90;;;;;;5132538;27;20397;-91
2024/01/06 00:21:04;;;;;;;22.23;17.50;;;3.00;99.90;;;;;;5134280;27;20390;-93
2024/01/06 00:23:30;;;;;;;21.88;17.00;;;3.00;99.90;;;;;;5133370;27;20401;-91
2024/01/06 00:25:56;;;;;;;21.17;16.43;;;3.00;99.90;;;;;;5133835;27;20473;-92
2024/01/06 00:28:22;;;;;;;21.33;15.82;;;2.70;99.90;;;;;;5133091;27;20430;-91
2024/01/06 00:30:48;;;;;;;19.40;15.83;;;3.00;99.90;;;;;;5132548;27;20517;-93
2024/01/06 00:33:13;;;;;;;20.50;16.10;;;2.70;99.90;;;;;;5133689;27;20446;-91
2024/01/06 00:35:39;;;;;;;20.50;16.60;;;2.80;99.90;;;;;;5132887;27;20431;-92
2024/01/06 00:38:05;;;;;;;21.38;16.85;;;2.70;99.90;;;;;;5133502;27;20397;-91
2024/01/06 00:40:32;;;;;;;22.53;17.47;;;2.90;99.90;;;;;;5128523;27;20486;-92
2024/01/06 00:42:58;;;;;;;19.77;16.50;;;2.80;99.90;;;;;;5113612;27;20403;-91
2024/01/06 00:45:24;;;;;;;21.83;16.90;;;2.80;99.90;;;;;;5111530;27;20395;-93
2024/01/06 00:47:50;;;;;;;22.73;17.83;;;3.20;99.90;;;;;;5112462;27;20459;-92
2024/01/06 00:50:16;;;;;;;22.70;17.55;;;2.70;99.90;;;;;;5111545;27;20839;-91
2024/01/06 00:52:42;;;;;;;24.00;16.45;;;2.90;99.90;;;;;;5111953;27;20406;-92
2024/01/06 00:55:08;;;;;;;21.75;16.60;;;2.70;99.90;;;;;;5112593;27;20403;-92
2024/01/06 00:57:34;;;;;;;23.45;17.00;;;2.70;99.90;;;;;;5110834;27;20765;-90
2024/01/06 01:00:00;;;;;;;21.20;16.42;;;2.70;99.90;;;;;;5112649;27;20391;-91
2024/01/06 01:02:25;;;;;;;22.27;16.60;;;2.70;99.90;;;;;;5111331;27;20406;-93
2024/01/06 01:04:52;;;;;;;23.48;17.60;;;2.70;99.90;;;;;;5112189;27;20399;-93
2024/01/06 01:07:18;;;;;;;19.80;16.20;;;2.60;99.90;;;;;;5112303;27;20407;-94
2024/01/06 01:09:43;;;;;;;19.90;16.10;;;3.10;99.90;;;;;;5111309;27;20422;-92
2024/01/06 01:12:09;;;;;;;20.33;16.53;;;3.00;99.90;;;;;;5128083;27;20436;-92
2024/01/06 01:14:35;;;;;;;18.50;15.15;;;2.70;99.90;;;;;;5120451;27;20776;-91
2024/01/06 01:17:01;;;;;;;18.38;15.45;;;2.60;99.90;;;;;;5112236;27;20401;-92
2024/01/06 01:19:26;;;;;;;18.73;14.50;;;2.60;99.90;;;;;;5110462;27;20395;-89
2024/01/06 01:21:55;;;;;;;16.93;14.57;;;2.60;99.90;;;;;;5112085;27;20391;-93
2024/01/06 01:24:22;;;;;;;17.52;14.82;;;2.60;99.90;;;;;;5111170;27;20402;-93
2024/01/06 01:26:48;;;;;;;18.48;14.77;;;2.60;99.90;;;;;;5124156;27;20480;-93
2024/01/06 01:29:14;;;;;;;17.13;14.45;;;2.80;99.90;;;;;;5124487;27;20774;-89
2024/01/06 01:31:39;;;;;;;18.70;14.07;;;2.70;99.90;;;;;;5110789;27;20395;-92
2024/01/06 01:34:05;;;;;;;16.83;13.63;;;2.60;99.90;;;;;;5111858;27;20892;-91
2024/01/06 01:36:31;;;;;;;17.05;14.27;;;2.60;99.90;;;;;;5145199;27;20389;-91
2024/01/06 01:38:57;;;;;;;15.73;12.82;;;2.80;99.90;;;;;;5132483;27;20415;-92
2024/01/06 01:41:22;;;;;;;17.60;14.13;;;2.70;99.90;;;;;;5131106;27;20409;-89
2024/01/06 01:43:48;;;;;;;15.47;13.50;;;2.70;99.90;;;;;;5132350;27;20748;-94
2024/01/06 01:46:14;;;;;;;15.85;13.18;;;2.70;99.90;;;;;;5149071;27;20385;-93
2024/01/06 01:48:40;;;;;;;16.92;13.13;;;2.80;99.90;;;;;;5112846;27;20491;-93
2024/01/06 01:51:07;;;;;;;13.90;12.25;;;3.10;99.90;;;;;;5111419;27;20951;-94
2024/01/06 01:53:36;;;;;;;15.73;12.82;;;2.80;99.90;;;;;;5110151;27;20398;-91
2024/01/06 01:56:04;;;;;;;15.40;12.40;;;2.70;99.90;;;;;;5115377;27;20389;-92
2024/01/06 01:58:30;;;;;;;15.27;12.23;;;2.60;99.90;;;;;;5130622;27;20397;-91
2024/01/06 02:00:55;;;;;;;14.83;12.50;;;2.40;99.90;;;;;;5132188;27;20918;-93
2024/01/06 02:03:24;;;;;;;14.33;12.30;;;2.60;99.90;;;;;;5148250;27;20404;-92
2024/01/06 02:05:49;;;;;;;14.38;12.23;;;2.70;99.90;;;;;;5131319;27;20393;-91
2024/01/06 02:08:15;;;;;;;13.20;11.80;;;2.60;99.90;;;;;;5131635;27;20461;-90
2024/01/06 02:10:41;;;;;;;14.32;11.90;;;2.50;99.90;;;;;;5130482;27;20489;-93
2024/01/06 02:13:11;;;;;;;14.68;12.05;;;2.60;99.90;;;;;;5131209;27;20516;-91
2024/01/06 02:15:37;;;;;;;14.27;11.85;;;2.50;99.90;;;;;;5129874;27;20397;-91
2024/01/06 02:18:03;;;;;;;15.20;12.07;;;2.40;99.90;;;;;;5131870;27;20459;-92
2024/01/06 02:20:32;;;;;;;13.98;11.27;;;2.60;99.90;;;;;;5123279;27;20758;-93
2024/01/06 02:23:00;;;;;;;14.07;11.88;;;2.50;99.90;;;;;;5110060;27;20399;-92
2024/01/06 02:25:26;;;;;;;13.55;12.13;;;2.60;99.90;;;;;;5110579;27;20905;-92
2024/01/06 02:27:52;;;;;;;15.80;13.57;;;2.60;99.90;;;;;;5110094;27;20405;-91
2024/01/06 02:30:17;;;;;;;17.08;13.80;;;2.70;99.90;;;;;;5110703;27;20430;-94
2024/01/06 02:32:43;;;;;;;16.17;14.43;;;2.70;99.90;;;;;;5109595;27;20402;-92
2024/01/06 02:35:09;;;;;;;19.87;15.60;;;2.80;99.90;;;;;;5111017;27;20448;-94
2024/01/06 02:37:34;;;;;;;19.83;15.80;;;2.60;99.90;;;;;;5109488;27;20410;-92
2024/01/06 02:40:00;;;;;;;21.52;15.98;;;2.60;99.90;;;;;;5111103;27;20407;-93
2024/01/06 02:42:26;;;;;;;20.03;16.63;;;2.80;99.90;;;;;;5109855;27;20665;-94
2024/01/06 02:44:51;;;;;;;17.50;15.27;;;2.60;99.90;;;;;;5127731;27;20470;-94
2024/01/06 02:47:17;;;;;;;17.60;15.40;;;2.70;99.90;;;;;;5110550;27;20399;-91
2024/01/06 02:49:43;;;;;;;17.08;14.77;;;2.50;99.90;;;;;;5109952;28;20522;-92
2024/01/06 02:52:09;;;;;;;15.75;13.50;;;2.70;99.90;;;;;;5110911;28;20398;-93
2024/01/06 02:54:34;;;;;;;16.38;13.75;;;2.80;99.90;;;;;;5109309;28;20438;-93
2024/01/06 02:57:00;;;;;;;16.63;14.10;;;2.60;99.90;;;;;;5110915;28;20955;-91
2024/01/06 02:59:26;;;;;;;17.57;13.73;;;2.60;99.90;;;;;;5108968;27;20399;-93
2024/01/06 03:01:51;;;;;;;16.15;13.00;;;2.80;99.90;;;;;;5110654;27;20395;-90
2024/01/06 03:04:17;;;;;;;18.50;14.73;;;2.60;99.90;;;;;;5131234;27;20401;-92
2024/01/06 03:06:51;;;;;;;17.57;14.97;;;2.70;99.90;;;;;;5146566;27;20393;-93
2024/01/06 03:09:18;;;;;;;16.20;14.20;;;2.60;99.90;;;;;;5130364;27;20389;-92
2024/01/06 03:11:44;;;;;;;15.70;14.05;;;2.60;99.90;;;;;;5129827;27;20405;-93
2024/01/06 03:14:09;;;;;;;17.38;14.13;;;2.60;99.90;;;;;;5131694;27;20385;-93
2024/01/06 03:16:35;;;;;;;18.37;14.17;;;2.70;99.90;;;;;;5147077;27;20395;-88
2024/01/06 03:19:01;;;;;;;18.33;14.47;;;2.50;99.90;;;;;;5131172;27;20404;-93
2024/01/06 03:21:26;;;;;;;16.35;13.80;;;2.60;99.90;;;;;;5132286;27;20959;-93
2024/01/06 03:23:52;;;;;;;19.02;14.52;;;2.50;99.90;;;;;;5134429;27;20405;-92
2024/01/06 03:26:18;;;;;;;17.03;14.00;;;2.60;99.90;;;;;;5135217;27;20393;-94
2024/01/06 03:28:43;;;;;;;19.13;14.50;;;2.50;99.90;;;;;;5133663;27;20404;-92
2024/01/06 03:31:09;;;;;;;17.47;13.90;;;2.30;99.90;;;;;;5126089;27;20426;-92
2024/01/06 03:33:35;;;;;;;18.63;14.00;;;2.60;99.90;;;;;;5112907;27;20490;-89
2024/01/06 03:36:07;;;;;;;17.70;13.90;;;2.50;99.90;;;;;;5131735;27;20383;-92
2024/01/06 03:38:33;;;;;;;17.90;13.60;;;2.50;99.90;;;;;;5113279;27;20727;-93
2024/01/06 03:40:59;;;;;;;17.13;14.27;;;2.50;99.90;;;;;;5123694;27;20458;-95
2024/01/06 03:43:25;;;;;;;17.30;12.90;;;2.70;99.90;;;;;;5133974;27;20472;-93
2024/01/06 03:45:50;;;;;;;15.53;13.60;;;2.60;99.90;;;;;;5124312;27;20459;-91
2024/01/06 03:48:16;;;;;;;16.60;12.25;;;2.60;99.90;;;;;;5131180;27;20408;-93
2024/01/06 03:50:42;;;;;;;14.93;12.95;;;2.50;99.90;;;;;;5112631;27;20415;-92
2024/01/06 03:53:07;;;;;;;15.63;12.77;;;2.60;99.90;;;;;;5114717;27;20399;-94
2024/01/06 03:55:33;;;;;;;16.57;12.87;;;2.60;99.90;;;;;;5112855;27;20398;-95
2024/01/06 03:57:59;;;;;;;16.23;13.15;;;2.50;99.90;;;;;;5113682;27;20395;-91
2024/01/06 04:00:26;;;;;;;17.48;12.50;;;2.60;99.90;;;;;;5129495;27;20948;-91
2024/01/06 04:02:52;;;;;;;16.98;12.82;;;2.30;99.90;;;;;;5112996;27;20455;-95
2024/01/06 04:05:17;;;;;;;17.40;13.40;;;2.60;99.90;;;;;;5113627;27;20502;-92
2024/01/06 04:07:43;;;;;;;16.92;13.35;;;2.50;99.90;;;;;;5112514;27;20404;-93
2024/01/06 04:10:09;;;;;;;16.97;13.27;;;2.60;99.90;;;;;;5124724;27;20991;-89
2024/01/06 04:12:34;;;;;;;17.97;13.67;;;2.60;99.90;;;;;;5132920;27;20397;-92
2024/01/06 04:15:00;;;;;;;17.87;13.37;;;2.60;99.90;;;;;;5134022;27;20389;-93
2024/01/06 04:17:26;;;;;;;18.20;13.45;;;2.50;99.90;;;;;;5133269;27;20404;-93
2024/01/06 04:19:53;;;;;;;18.48;13.43;;;2.60;99.90;;;;;;5133678;27;20484;-91
2024/01/06 04:22:18;;;;;;;16.55;12.80;;;2.50;99.90;;;;;;5133151;27;20895;-91
2024/01/06 04:24:44;;;;;;;16.17;12.98;;;2.50;99.90;;;;;;5150308;27;21033;-95
2024/01/06 04:27:10;;;;;;;15.97;12.33;;;2.80;99.90;;;;;;5133695;27;20393;-94
2024/01/06 04:29:36;;;;;;;17.33;13.20;;;2.50;99.90;;;;;;5132180;27;20385;-94
2024/01/06 04:32:01;;;;;;;16.13;11.40;;;2.70;99.90;;;;;;5131784;27;20851;-93
2024/01/06 04:34:27;;;;;;;14.93;11.85;;;2.50;99.90;;;;;;5111584;27;20496;-92
2024/01/06 04:36:53;;;;;;;14.82;11.25;;;2.70;99.90;;;;;;5121667;27;20401;-94
2024/01/06 04:39:18;;;;;;;14.05;11.32;;;2.60;99.90;;;;;;5117300;27;20399;-92
2024/01/06 04:41:44;;;;;;;14.83;12.07;;;2.50;99.90;;;;;;5112918;27;20407;-90
2024/01/06 04:44:10;;;;;;;16.83;11.70;;;2.60;99.90;;;;;;5112622;27;20981;-94
2024/01/06 04:46:35;;;;;;;16.10;12.77;;;3.10;99.90;;;;;;5111982;27;20398;-94
2024/01/06 04:49:01;;;;;;;16.67;12.48;;;2.70;99.90;;;;;;5112780;27;21059;-94
2024/01/06 04:51:27;;;;;;;17.27;12.15;;;2.70;99.90;;;;;;5111217;27;20423;-92
2024/01/06 04:53:52;;;;;;;14.83;12.07;;;2.60;99.90;;;;;;5112766;27;20398;-93
2024/01/06 04:56:18;;;;;;;17.43;12.23;;;2.80;99.90;;;;;;5111335;27;20403;-93
2024/01/06 04:58:44;;;;;;;16.65;11.68;;;2.70;99.90;;;;;;5113070;27;20399;-93
2024/01/06 05:01:12;;;;;;;15.45;11.80;;;2.60;99.90;;;;;;5120519;27;20389;-94
2024/01/06 05:03:38;;;;;;;15.40;11.13;;;2.90;99.90;;;;;;5099560;27;20831;-92
2024/01/06 05:06:04;;;;;;;15.50;10.73;;;2.90;99.90;;;;;;5133299;27;20404;-92
2024/01/06 05:08:32;;;;;;;14.33;11.13;;;2.60;99.90;;;;;;5132444;27;21032;-93
2024/01/06 05:10:59;;;;;;;14.48;12.38;;;2.60;99.90;;;;;;5133839;27;20421;-92
2024/01/06 05:13:24;;;;;;;13.20;11.30;;;2.70;99.90;;;;;;5131592;27;20399;-92
2024/01/06 05:15:50;;;;;;;16.10;11.50;;;2.80;99.90;;;;;;5126276;27;20399;-95
2024/01/06 05:18:16;;;;;;;15.25;11.60;;;2.60;99.90;;;;;;5143248;27;20452;-95
2024/01/06 05:20:41;;;;;;;15.20;11.70;;;2.80;99.90;;;;;;5110949;27;20390;-92
2024/01/06 05:23:07;;;;;;;15.40;12.30;;;2.70;99.90;;;;;;5110873;27;20437;-93
2024/01/06 05:25:33;;;;;;;15.13;12.27;;;2.80;99.90;;;;;;5110624;27;20402;-92
2024/01/06 05:27:58;;;;;;;16.73;12.43;;;2.70;99.90;;;;;;5111544;27;20399;-96
2024/01/06 05:30:24;;;;;;;14.40;11.52;;;2.70;99.90;;;;;;5112014;27;20426;-94
2024/01/06 05:32:50;;;;;;;16.30;12.38;;;2.80;99.90;;;;;;5132694;27;20928;-91
2024/01/06 05:35:16;;;;;;;15.13;11.43;;;2.80;99.90;;;;;;5113746;27;20455;-95
2024/01/06 05:37:42;;;;;;;16.67;11.98;;;3.30;99.90;;;;;;5128571;27;20399;-94
2024/01/06 05:40:09;;;;;;;14.57;10.80;;;2.70;99.90;;;;;;5110737;27;20893;-95
2024/01/06 05:42:34;;;;;;;15.63;12.30;;;2.70;99.90;;;;;;5114258;27;20497;-95
2024/01/06 05:45:00;;;;;;;14.30;11.80;;;2.70;99.90;;;;;;5110831;27;20478;-90
2024/01/06 05:47:26;;;;;;;15.87;12.40;;;2.70;99.90;;;;;;5113529;27;20395;-94
2024/01/06 05:49:52;;;;;;;18.40;12.50;;;2.80;99.90;;;;;;5111651;27;20422;-95
2024/01/06 05:52:17;;;;;;;17.20;12.50;;;2.60;99.90;;;;;;5109805;27;20486;-95
2024/01/06 05:54:43;;;;;;;16.83;12.25;;;2.70;99.90;;;;;;5114767;27;20430;-96
2024/01/06 05:57:12;;;;;;;16.20;12.10;;;2.70;99.90;;;;;;5131822;27;20392;-94
2024/01/06 05:59:38;;;;;;;16.63;12.32;;;2.70;99.90;;;;;;5114384;27;20401;-96
2024/01/06 06:02:04;;;;;;;16.50;11.80;;;2.80;99.90;;;;;;5114359;27;20403;-96
2024/01/06 06:04:29;;;;;;;17.50;12.60;;;2.60;99.90;;;;;;5110660;27;20404;-96
2024/01/06 06:06:55;;;;;;;16.60;12.50;;;2.70;99.90;;;;;;5111519;27;20430;-95
2024/01/06 06:09:23;;;;;;;14.73;12.33;;;2.90;99.90;;;;;;5110415;27;20399;-96
2024/01/06 06:11:49;;;;;;;16.03;12.30;;;2.70;99.90;;;;;;5111988;27;20435;-93
2024/01/06 06:14:14;;;;;;;16.07;11.13;;;2.80;99.90;;;;;;5128494;27;20435;-96
2024/01/06 06:16:40;;;;;;;14.88;11.95;;;2.70;99.90;;;;;;5133046;27;20856;-95
2024/01/06 06:19:07;;;;;;;16.05;12.43;;;2.90;99.90;;;;;;5134911;27;20467;-96
2024/01/06 06:21:34;;;;;;;16.60;12.68;;;2.70;99.90;;;;;;5110603;27;20433;-95
2024/01/06 06:23:59;;;;;;;17.05;12.40;;;2.80;99.90;;;;;;5144541;27;20455;-95
2024/01/06 06:26:27;;;;;;;15.43;12.40;;;2.80;99.90;;;;;;5145257;27;20522;-95
2024/01/06 06:28:52;;;;;;;19.95;13.63;;;2.80;99.90;;;;;;5111337;27;20768;-96
2024/01/06 06:31:18;;;;;;;16.17;12.60;;;2.80;99.90;;;;;;5108829;27;20419;-93
2024/01/06 06:33:44;;;;;;;16.00;12.70;;;2.70;99.90;;;;;;5111704;27;20543;-95
2024/01/06 06:36:10;;;;;;;17.50;13.18;;;3.40;99.90;;;;;;5109158;27;20434;-94
2024/01/06 06:38:36;;;;;;;17.35;13.23;;;2.90;99.90;;;;;;5113041;27;20394;-94
2024/01/06 06:41:01;;;;;;;16.80;13.33;;;2.90;99.90;;;;;;5110677;27;20455;-94
2024/01/06 06:43:27;;;;;;;16.20;13.03;;;2.80;99.90;;;;;;5110038;27;20399;-95
2024/01/06 06:45:55;;;;;;;18.08;13.63;;;3.40;99.90;;;;;;5110828;27;20811;-94
2024/01/06 06:48:21;;;;;;;18.50;13.32;;;3.00;99.90;;;;;;5109558;27;20410;-95
2024/01/06 06:50:46;;;;;;;18.27;13.38;;;2.90;99.90;;;;;;5110524;28;20430;-94
2024/01/06 06:53:12;;;;;;;18.98;13.80;;;3.10;99.90;;;;;;5121314;27;20808;-95
2024/01/06 06:55:41;;;;;;;15.90;12.88;;;3.00;99.90;;;;;;5123669;27;20391;-95
2024/01/06 06:58:07;;;;;;;20.02;13.68;;;2.90;99.90;;;;;;5108752;27;20414;-95
2024/01/06 07:00:33;;;;;;;18.03;13.70;;;3.00;99.90;;;;;;5110730;27;20897;-93
2024/01/06 07:02:58;;;;;;;17.30;14.00;;;2.90;99.90;;;;;;5109747;28;20459;-93
2024/01/06 07:05:24;;;;;;;17.45;14.23;;;3.20;99.90;;;;;;5109885;28;20402;-94
2024/01/06 07:07:50;;;;;;;20.42;14.75;;;3.10;99.90;;;;;;5110096;28;20402;-95
2024/01/06 07:10:16;;;;;;;20.23;16.42;;;3.00;99.90;;;;;;5113581;27;20779;-93
2024/01/06 07:12:41;;;;;;;25.00;20.30;;;3.00;99.90;;;;;;5131709;27;20393;-93
2024/01/06 07:15:10;;;;;;;23.37;19.57;;;3.30;99.90;;;;;;5128988;27;20404;-94
2024/01/06 07:17:35;;;;;;;24.27;18.58;;;3.00;99.90;;;;;;5132321;27;20397;-95
2024/01/06 07:20:04;;;;;;;20.67;18.00;;;3.00;99.90;;;;;;5119264;28;21134;-94
2024/01/06 07:22:29;;;;;;;20.70;15.93;;;2.80;99.90;;;;;;5115001;27;20401;-95
2024/01/06 07:24:58;;;;;;;18.92;13.75;;;3.00;99.90;;;;;;5130833;27;20418;-95
2024/01/06 07:27:24;;;;;;;18.50;13.60;;;3.00;99.90;;;;;;5109534;28;20470;-92
2024/01/06 07:29:49;;;;;;;14.73;12.48;;;3.00;99.90;;;;;;5110101;28;21018;-94
2024/01/06 07:32:15;;;;;;;16.47;12.60;;;3.10;99.90;;;;;;5108354;28;20415;-94
2024/01/06 07:34:41;;;;;;;16.77;13.17;;;3.00;99.90;;;;;;5110319;28;20390;-94
2024/01/06 07:37:07;;;;;;;16.57;12.57;;;3.10;99.90;;;;;;5108907;28;20430;-93
2024/01/06 07:39:33;;;;;;;17.75;13.95;;;3.10;99.90;;;;;;5111174;28;20402;-93
2024/01/06 07:41:59;;;;;;;18.05;13.68;;;3.00;99.90;;;;;;5109043;28;20383;-94
2024/01/06 07:44:27;;;;;;;16.55;12.60;;;3.00;99.90;;;;;;5109984;28;20403;-94
2024/01/06 07:46:53;;;;;;;18.42;14.35;;;3.00;99.90;;;;;;5110198;28;20900;-95
2024/01/06 07:49:19;;;;;;;18.77;13.48;;;3.10;99.90;;;;;;5110818;27;20386;-94
2024/01/06 07:51:44;;;;;;;18.13;13.87;;;3.00;99.90;;;;;;5126936;27;20429;-92
2024/01/06 07:54:11;;;;;;;20.60;14.27;;;3.10;99.90;;;;;;5111325;27;20501;-93
2024/01/06 07:56:37;;;;;;;19.15;14.52;;;3.10;99.90;;;;;;5125287;27;20408;-93
2024/01/06 07:59:04;;;;;;;16.60;13.50;;;3.10;99.90;;;;;;5125679;27;20407;-92
2024/01/06 08:01:32;;;;;;;17.10;13.35;;;3.10;99.90;;;;;;5130547;27;20404;-95
2024/01/06 08:03:59;;;;;;;18.17;13.25;;;3.10;99.90;;;;;;5130737;27;21222;-95
2024/01/06 08:06:25;;;;;;;16.85;13.32;;;3.10;99.90;;;;;;5114660;27;20397;-93
2024/01/06 08:08:51;;;;;;;18.70;14.32;;;3.20;99.90;;;;;;5134454;27;20511;-94
2024/01/06 08:11:16;;;;;;;17.83;13.83;;;3.00;99.90;;;;;;5132639;27;20425;-94
2024/01/06 08:13:42;;;;;;;19.67;14.83;;;2.90;99.90;;;;;;5133958;27;20569;-94
2024/01/06 08:16:08;;;;;;;17.58;14.23;;;3.00;99.90;;;;;;5119325;27;20413;-93
2024/01/06 08:18:33;;;;;;;17.27;15.13;;;3.00;99.90;;;;;;5148064;27;20391;-92
2024/01/06 08:20:59;;;;;;;17.83;14.80;;;3.10;99.90;;;;;;5146820;27;20486;-93
2024/01/06 08:23:25;;;;;;;17.00;13.83;;;3.00;99.90;;;;;;5146814;27;21068;-90
2024/01/06 08:25:51;;;;;;;16.52;13.07;;;2.90;99.90;;;;;;5113905;27;20531;-92
2024/01/06 08:28:18;;;;;;;17.60;13.23;;;3.00;99.90;;;;;;5111830;27;20485;-93
2024/01/06 08:30:44;;;;;;;17.15;13.10;;;3.20;99.90;;;;;;5113504;27;20427;-93
2024/01/06 08:33:10;;;;;;;16.42;13.18;;;3.00;99.90;;;;;;5128999;27;20395;-93
2024/01/06 08:35:40;;;;;;;15.45;12.43;;;3.00;99.90;;;;;;5113805;27;20410;-93
2024/01/06 08:38:08;;;;;;;15.90;12.60;;;3.20;99.90;;;;;;5112148;27;20409;-95
2024/01/06 08:40:35;;;;;;;16.85;13.90;;;3.10;99.90;;;;;;5113274;27;20761;-92
2024/01/06 08:43:01;;;;;;;16.70;13.65;;;3.00;99.90;;;;;;5129908;27;20399;-92
2024/01/06 08:45:27;;;;;;;18.77;14.52;;;3.10;99.90;;;;;;5112105;27;20401;-90
2024/01/06 08:47:52;;;;;;;18.98;14.35;;;3.10;99.90;;;;;;5113159;27;21081;-95
2024/01/06 08:50:18;;;;;;;17.40;14.43;;;3.10;99.90;;;;;;5113180;27;20430;-94
2024/01/06 08:52:44;;;;;;;17.85;15.07;;;3.10;99.90;;;;;;5112913;27;20399;-92
2024/01/06 08:55:12;;;;;;;17.50;14.57;;;3.10;99.90;;;;;;5110762;27;20417;-93
2024/01/06 08:57:37;;;;;;;18.67;15.07;;;3.10;99.90;;;;;;5112752;27;20426;-93
2024/01/06 09:00:04;;;;;;;17.53;13.97;;;3.00;99.90;;;;;;5112131;27;20410;-94
2024/01/06 09:02:30;;;;;;;19.52;14.23;;;3.10;99.90;;;;;;5112423;27;20476;-92
2024/01/06 09:04:55;;;;;;;19.13;14.07;;;3.00;99.90;;;;;;5112009;27;20463;-90
2024/01/06 09:07:21;;;;;;;18.50;13.47;;;3.10;99.90;;;;;;5112387;27;20406;-91
2024/01/06 09:09:47;;;;;;;17.13;13.33;;;3.10;99.90;;;;;;5112881;27;20395;-93
2024/01/06 09:12:12;;;;;;;16.55;13.45;;;3.00;99.90;;;;;;5111506;27;20409;-91
2024/01/06 09:14:38;;;;;;;18.73;14.50;;;3.10;99.90;;;;;;5113587;27;20403;-94
2024/01/06 09:17:04;;;;;;;19.23;15.13;;;3.10;99.90;;;;;;5111038;27;20405;-93
2024/01/06 09:19:30;;;;;;;18.70;14.47;;;3.50;99.90;;;;;;5112533;27;20811;-94
2024/01/06 09:21:56;;;;;;;15.98;13.95;;;3.10;99.90;;;;;;5111332;27;20422;-92
2024/01/06 09:24:22;;;;;;;18.20;14.82;;;3.00;99.90;;;;;;5111994;27;20402;-93
2024/01/06 09:26:50;;;;;;;17.75;14.68;;;3.10;99.90;;;;;;5111798;27;20398;-95
2024/01/06 09:29:16;;;;;;;18.58;14.18;;;3.10;99.90;;;;;;5110763;27;20390;-93
2024/01/06 09:31:42;;;;;;;16.15;13.75;;;3.20;99.90;;;;;;5112347;27;20418;-93
2024/01/06 09:34:10;;;;;;;21.45;15.50;;;3.20;99.90;;;;;;5110427;27;20394;-94
2024/01/06 09:36:38;;;;;;;19.92;15.60;;;3.10;99.90;;;;;;5111924;27;22526;-93
2024/01/06 09:39:04;;;;;;;16.48;13.88;;;3.20;99.90;;;;;;5110671;27;20414;-93
2024/01/06 09:41:31;;;;;;;15.38;13.30;;;3.30;99.90;;;;;;5128754;27;20443;-92
2024/01/06 09:43:57;;;;;;;18.67;14.55;;;3.10;99.90;;;;;;5114168;27;20398;-89
2024/01/06 09:46:29;;;;;;;17.27;14.05;;;3.10;99.90;;;;;;5111027;27;20439;-91
2024/01/06 09:48:55;;;;;;;18.17;13.48;;;3.70;99.90;;;;;;5112320;27;20410;-95
2024/01/06 09:51:22;;;;;;;17.60;14.23;;;3.20;99.90;;;;;;5110512;27;20438;-94
2024/01/06 09:53:52;;;;;;;18.27;14.45;;;3.30;99.90;;;;;;5122293;27;20432;-95
2024/01/06 09:56:18;;;;;;;17.50;14.00;;;3.20;99.90;;;;;;5133676;27;20403;-91
2024/01/06 09:58:47;;;;;;;18.58;14.45;;;3.20;99.90;;;;;;5133312;27;20401;-95
2024/01/06 10:01:14;;;;;;;17.83;14.40;;;3.20;99.90;;;;;;5131241;27;20490;-95
2024/01/06 10:03:40;;;;;;;16.10;13.80;;;3.30;99.90;;;;;;5136951;27;20393;-92
2024/01/06 10:06:06;;;;;;;17.33;14.00;;;3.20;99.90;;;;;;5132814;27;20401;-94
2024/01/06 10:08:32;;;;;;;15.15;13.52;;;3.30;99.90;;;;;;5133756;27;20397;-95
2024/01/06 10:11:01;;;;;;;18.85;13.57;;;3.20;99.90;;;;;;5132595;27;20421;-93
2024/01/06 10:13:44;;;;;;;17.58;13.93;;;3.30;99.90;;;;;;5136375;27;20412;-96
2024/01/06 10:16:10;;;;;;;17.55;13.48;;;3.10;99.90;;;;;;5117045;27;20392;-91
2024/01/06 10:18:39;;;;;;;16.60;13.25;;;3.50;99.90;;;;;;5135090;27;20393;-95
2024/01/06 10:21:08;;;;;;;17.75;12.70;;;3.40;99.90;;;;;;5133568;27;20444;-95
2024/01/06 10:23:37;;;;;;;15.77;13.30;;;3.30;99.90;;;;;;5130430;27;20416;-94
2024/01/06 10:26:02;;;;;;;18.90;13.90;;;3.30;99.90;;;;;;5133152;27;20874;-95
2024/01/06 10:28:29;;;;;;;14.88;12.55;;;3.40;99.90;;;;;;5132145;27;20405;-95
2024/01/06 10:30:58;;;;;;;15.73;12.55;;;3.30;99.90;;;;;;5131300;27;20505;-93
2024/01/06 10:33:25;;;;;;;16.50;12.60;;;3.50;99.90;;;;;;5113701;27;21106;-95
2024/01/06 10:35:55;;;;;;;15.35;13.13;;;3.40;99.90;;;;;;5118483;27;20398;-96
2024/01/06 10:38:21;;;;;;;14.70;12.13;;;3.30;99.90;;;;;;5111803;27;20460;-93
2024/01/06 10:41:07;;;;;;;17.03;12.40;;;3.30;99.90;;;;;;5111923;27;20765;-93
2024/01/06 10:43:36;;;;;;;15.35;12.00;;;3.50;99.90;;;;;;5112392;27;20417;-95
2024/01/06 10:46:07;;;;;;;16.63;12.10;;;3.30;99.90;;;;;;5111430;27;20425;-94
2024/01/06 10:48:42;;;;;;;13.25;11.63;;;3.30;99.90;;;;;;5111349;27;20432;-93
2024/01/06 10:51:11;;;;;;;13.87;11.77;;;3.30;99.90;;;;;;5110676;27;20422;-94
2024/01/06 10:53:43;;;;;;;14.95;12.45;;;3.30;99.90;;;;;;5112027;28;20493;-95
2024/01/06 10:56:16;;;;;;;13.57;11.55;;;3.30;99.90;;;;;;5112165;28;20406;-95
2024/01/06 10:58:51;;;;;;;22.38;14.23;;;3.30;99.90;;;;;;5131975;27;20406;-95
2024/01/06 11:01:21;;;;;;;30.80;18.83;;;3.30;99.90;;;;;;5110314;27;20460;-95
2024/01/06 11:03:48;;;;;;;19.30;14.38;;;3.10;99.90;;;;;;5092326;28;20859;-94
2024/01/06 11:06:14;;;;;;;16.33;13.85;;;3.40;99.90;;;;;;5110066;28;20433;-91
2024/01/06 11:09:10;;;;;;;16.03;12.93;;;3.50;99.90;;;;;;5110524;28;20799;-94
2024/01/06 11:11:37;;;;;;;13.68;10.88;;;3.30;99.90;;;;;;5104354;28;20437;-93
2024/01/06 11:14:22;;;;;;;13.87;10.90;;;3.40;99.90;;;;;;5127946;27;20471;-91
2024/01/06 11:16:48;;;;;;;12.03;9.70;;;3.30;99.90;;;;;;5132384;27;20390;-93
2024/01/06 11:19:38;;;;;;;12.93;9.90;;;3.40;99.90;;;;;;5111294;28;20450;-93
2024/01/06 11:22:31;;;;;;;12.43;10.43;;;3.30;99.90;;;;;;5110211;27;20402;-94
2024/01/06 11:25:07;;;;;;;12.98;9.70;;;3.80;99.90;;;;;;5108409;28;20414;-93
2024/01/06 11:27:33;;;;;;;9.93;8.80;;;3.30;99.90;;;;;;5135132;27;20396;-95
2024/01/06 11:30:05;;;;;;;10.98;9.52;;;3.40;99.90;;;;;;5114879;27;20447;-96
2024/01/06 11:32:41;;;;;;;12.57;9.93;;;3.40;99.90;;;;;;5130522;27;20405;-93
2024/01/06 11:35:12;;;;;;;12.13;10.18;;;3.30;99.90;;;;;;5131709;27;20490;-94
2024/01/06 11:37:41;;;;;;;11.20;9.35;;;3.30;99.90;;;;;;5130968;27;20409;-94
2024/01/06 11:40:21;;;;;;;10.15;8.93;;;3.40;99.90;;;;;;5117480;27;20418;-94
2024/01/06 11:43:00;;;;;;;10.68;8.98;;;3.40;99.90;;;;;;5114886;27;20422;-94
2024/01/06 11:45:26;;;;;;;10.85;8.80;;;3.40;99.90;;;;;;5118033;27;20407;-94
2024/01/06 11:47:56;;;;;;;9.63;8.52;;;3.50;99.90;;;;;;5114308;27;20496;-91
2024/01/06 11:50:23;;;;;;;10.20;8.40;;;3.70;99.90;;;;;;5115899;27;20842;-91
2024/01/06 11:52:50;;;;;;;10.85;9.05;;;3.50;99.90;;;;;;5135924;27;20809;-92
2024/01/06 11:55:18;;;;;;;11.10;9.40;;;3.50;99.90;;;;;;5133974;27;20408;-92
2024/01/06 11:57:45;;;;;;;9.80;8.57;;;3.50;99.90;;;;;;5135492;27;20468;-92
2024/01/06 12:00:14;;;;;;;10.75;9.07;;;3.60;99.90;;;;;;5133462;27;20400;-93
2024/01/06 12:02:40;;;;;;;9.85;8.85;;;3.50;99.90;;;;;;5119680;27;21079;-94
2024/01/06 12:05:11;;;;;;;11.23;9.23;;;3.60;99.90;;;;;;5135472;27;21020;-92
2024/01/06 12:07:42;;;;;;;11.02;9.40;;;3.60;99.90;;;;;;5134433;27;20435;-92
2024/01/06 12:10:11;;;;;;;11.45;9.48;;;3.60;99.90;;;;;;5151174;27;20439;-95
2024/01/06 12:12:37;;;;;;;11.50;9.35;;;3.80;99.90;;;;;;5134624;27;20405;-94
2024/01/06 12:15:04;;;;;;;10.80;9.70;;;3.80;99.90;;;;;;5135705;27;20488;-94
2024/01/06 12:17:31;;;;;;;11.73;10.02;;;3.70;99.90;;;;;;5134671;27;20564;-94
2024/01/06 12:19:57;;;;;;;11.40;9.90;;;3.70;99.90;;;;;;5137853;27;20437;-93
2024/01/06 12:22:23;;;;;;;11.10;9.77;;;3.80;99.90;;;;;;5116251;27;20515;-92
2024/01/06 12:24:52;;;;;;;11.75;10.13;;;3.60;99.90;;;;;;5114206;27;20505;-93
2024/01/06 12:27:21;;;;;;;10.90;9.80;;;3.80;99.90;;;;;;5111989;27;20403;-94
2024/01/06 12:29:53;;;;;;;11.95;10.05;;;3.70;99.90;;;;;;5130393;27;20435;-94
2024/01/06 12:32:18;;;;;;;12.90;10.87;;;3.40;99.90;;;;;;5112976;27;20730;-93
2024/01/06 12:34:44;;;;;;;11.10;10.00;;;3.60;99.90;;;;;;5113104;27;20410;-92
2024/01/06 12:37:10;;;;;;;12.37;11.07;;;3.90;99.90;;;;;;5128898;27;20470;-93